Terry, Mississippi
Current Conditions -  °F | °C
As of 5:35 PM on Saturday 22 Nov 2014 (Local Time) from KJVW Reporting Station
Clear Clear  
Wind Chill: 63°   Ceiling: Unl
Heat Index: 63°   Visibility: 10mi
Dew Point: 57°   Wind: 6mph
Humidity: 82%   Direction: 130°SE
Pressure: 30.04"   Gusts: NA
Location:  32.1°N, 90.29°W
Report Text: KJVW 222335Z AUTO 13005KT 10SM CLR 17/14 A3004 RMK AO2 LTG DSNT NE AND SE
Loading
Personal Weather Stations






























Interactive Weather Map New forecast layout! Learn more

10-Day Weather Forecast

Advertisements
Track Severe Weather on mobile